sensor_id;sensor_type;location;lat;lon;timestamp;P1;durP1;ratioP1;P2;durP2;ratioP2
69310;SDS011;56430;48.154;16.458;2023-09-30T00:02:26;6.15;;;2.97;;
69310;SDS011;56430;48.154;16.458;2023-09-30T00:04:53;7.32;;;3.55;;
69310;SDS011;56430;48.154;16.458;2023-09-30T00:07:19;5.97;;;3.10;;
69310;SDS011;56430;48.154;16.458;2023-09-30T00:09:48;7.10;;;3.50;;
69310;SDS011;56430;48.154;16.458;2023-09-30T00:12:17;7.15;;;3.50;;
69310;SDS011;56430;48.154;16.458;2023-09-30T00:14:44;12.30;;;3.40;;
69310;SDS011;56430;48.154;16.458;2023-09-30T00:17:10;7.70;;;3.05;;
69310;SDS011;56430;48.154;16.458;2023-09-30T00:19:37;7.25;;;3.30;;
69310;SDS011;56430;48.154;16.458;2023-09-30T00:22:04;7.53;;;3.40;;
69310;SDS011;56430;48.154;16.458;2023-09-30T00:24:31;6.28;;;3.13;;
69310;SDS011;56430;48.154;16.458;2023-09-30T00:27:02;5.88;;;3.10;;
69310;SDS011;56430;48.154;16.458;2023-09-30T00:29:29;6.50;;;2.95;;
69310;SDS011;56430;48.154;16.458;2023-09-30T00:31:56;8.50;;;3.30;;
69310;SDS011;56430;48.154;16.458;2023-09-30T00:34:22;6.30;;;3.47;;
69310;SDS011;56430;48.154;16.458;2023-09-30T00:36:49;8.82;;;3.00;;
69310;SDS011;56430;48.154;16.458;2023-09-30T00:39:16;7.70;;;3.13;;
69310;SDS011;56430;48.154;16.458;2023-09-30T00:41:43;7.93;;;3.20;;
69310;SDS011;56430;48.154;16.458;2023-09-30T00:44:11;6.32;;;3.40;;
69310;SDS011;56430;48.154;16.458;2023-09-30T00:46:39;5.93;;;3.07;;
69310;SDS011;56430;48.154;16.458;2023-09-30T00:49:06;5.97;;;3.03;;
69310;SDS011;56430;48.154;16.458;2023-09-30T00:51:35;8.23;;;3.13;;
69310;SDS011;56430;48.154;16.458;2023-09-30T00:54:05;7.72;;;3.08;;
69310;SDS011;56430;48.154;16.458;2023-09-30T00:56:32;6.85;;;3.25;;
69310;SDS011;56430;48.154;16.458;2023-09-30T00:58:59;7.80;;;3.20;;
69310;SDS011;56430;48.154;16.458;2023-09-30T01:01:28;7.28;;;3.53;;
69310;SDS011;56430;48.154;16.458;2023-09-30T01:03:55;8.05;;;3.20;;
69310;SDS011;56430;48.154;16.458;2023-09-30T01:06:24;6.93;;;3.22;;
69310;SDS011;56430;48.154;16.458;2023-09-30T01:08:50;6.78;;;3.53;;
69310;SDS011;56430;48.154;16.458;2023-09-30T01:11:17;7.17;;;3.53;;
69310;SDS011;56430;48.154;16.458;2023-09-30T01:13:44;6.97;;;3.13;;
69310;SDS011;56430;48.154;16.458;2023-09-30T01:16:13;8.45;;;3.20;;
69310;SDS011;56430;48.154;16.458;2023-09-30T01:18:41;12.35;;;3.90;;
69310;SDS011;56430;48.154;16.458;2023-09-30T01:21:08;6.75;;;3.10;;
69310;SDS011;56430;48.154;16.458;2023-09-30T01:23:37;9.97;;;3.63;;
69310;SDS011;56430;48.154;16.458;2023-09-30T01:26:04;6.88;;;3.10;;
69310;SDS011;56430;48.154;16.458;2023-09-30T01:28:32;6.97;;;3.15;;
69310;SDS011;56430;48.154;16.458;2023-09-30T01:30:59;6.65;;;2.88;;
69310;SDS011;56430;48.154;16.458;2023-09-30T01:33:26;8.98;;;3.55;;
69310;SDS011;56430;48.154;16.458;2023-09-30T01:35:54;7.60;;;3.20;;
69310;SDS011;56430;48.154;16.458;2023-09-30T01:38:21;8.38;;;3.83;;
69310;SDS011;56430;48.154;16.458;2023-09-30T01:40:49;8.63;;;4.07;;
69310;SDS011;56430;48.154;16.458;2023-09-30T01:46:07;6.95;;;3.78;;
69310;SDS011;56430;48.154;16.458;2023-09-30T01:48:33;11.50;;;3.27;;
69310;SDS011;56430;48.154;16.458;2023-09-30T01:51:01;9.07;;;3.30;;
69310;SDS011;56430;48.154;16.458;2023-09-30T01:53:28;8.07;;;3.20;;
69310;SDS011;56430;48.154;16.458;2023-09-30T01:55:56;6.57;;;3.30;;
69310;SDS011;56430;48.154;16.458;2023-09-30T01:58:23;6.05;;;2.88;;
69310;SDS011;56430;48.154;16.458;2023-09-30T02:00:50;8.13;;;3.40;;
69310;SDS011;56430;48.154;16.458;2023-09-30T02:03:17;8.50;;;3.67;;
69310;SDS011;56430;48.154;16.458;2023-09-30T02:05:46;6.85;;;3.40;;
69310;SDS011;56430;48.154;16.458;2023-09-30T02:08:13;7.05;;;3.35;;
69310;SDS011;56430;48.154;16.458;2023-09-30T02:10:40;7.53;;;3.40;;
69310;SDS011;56430;48.154;16.458;2023-09-30T02:13:08;6.83;;;3.40;;
69310;SDS011;56430;48.154;16.458;2023-09-30T02:15:35;6.70;;;3.20;;
69310;SDS011;56430;48.154;16.458;2023-09-30T02:18:06;9.48;;;3.42;;
69310;SDS011;56430;48.154;16.458;2023-09-30T02:20:33;8.85;;;2.95;;
69310;SDS011;56430;48.154;16.458;2023-09-30T02:23:00;7.38;;;3.60;;
69310;SDS011;56430;48.154;16.458;2023-09-30T02:25:27;8.17;;;3.37;;
69310;SDS011;56430;48.154;16.458;2023-09-30T02:27:55;5.85;;;3.10;;
69310;SDS011;56430;48.154;16.458;2023-09-30T02:30:26;6.82;;;3.20;;
69310;SDS011;56430;48.154;16.458;2023-09-30T02:32:53;7.10;;;3.42;;
69310;SDS011;56430;48.154;16.458;2023-09-30T02:35:21;6.78;;;3.33;;
69310;SDS011;56430;48.154;16.458;2023-09-30T02:37:49;7.30;;;3.20;;
69310;SDS011;56430;48.154;16.458;2023-09-30T02:40:17;7.32;;;3.30;;
69310;SDS011;56430;48.154;16.458;2023-09-30T02:42:45;8.90;;;3.17;;
69310;SDS011;56430;48.154;16.458;2023-09-30T02:45:12;6.97;;;2.85;;
69310;SDS011;56430;48.154;16.458;2023-09-30T02:47:40;6.20;;;3.15;;
69310;SDS011;56430;48.154;16.458;2023-09-30T02:50:08;6.57;;;3.40;;
69310;SDS011;56430;48.154;16.458;2023-09-30T02:52:36;7.53;;;3.30;;
69310;SDS011;56430;48.154;16.458;2023-09-30T02:55:05;6.70;;;3.28;;
69310;SDS011;56430;48.154;16.458;2023-09-30T02:57:32;6.75;;;2.85;;
69310;SDS011;56430;48.154;16.458;2023-09-30T02:59:58;9.05;;;2.88;;
69310;SDS011;56430;48.154;16.458;2023-09-30T03:02:25;8.63;;;3.40;;
69310;SDS011;56430;48.154;16.458;2023-09-30T03:04:54;8.30;;;3.78;;
69310;SDS011;56430;48.154;16.458;2023-09-30T03:07:23;7.13;;;3.50;;
69310;SDS011;56430;48.154;16.458;2023-09-30T03:09:50;7.03;;;3.28;;
69310;SDS011;56430;48.154;16.458;2023-09-30T03:12:18;8.85;;;3.55;;
69310;SDS011;56430;48.154;16.458;2023-09-30T03:14:45;7.40;;;3.33;;
69310;SDS011;56430;48.154;16.458;2023-09-30T03:17:12;9.00;;;3.60;;
69310;SDS011;56430;48.154;16.458;2023-09-30T03:19:39;7.35;;;3.78;;
69310;SDS011;56430;48.154;16.458;2023-09-30T03:22:07;6.63;;;3.20;;
69310;SDS011;56430;48.154;16.458;2023-09-30T03:24:37;7.32;;;3.65;;
69310;SDS011;56430;48.154;16.458;2023-09-30T03:27:04;7.43;;;3.40;;
69310;SDS011;56430;48.154;16.458;2023-09-30T03:29:31;7.53;;;3.33;;
69310;SDS011;56430;48.154;16.458;2023-09-30T03:32:00;9.05;;;3.60;;
69310;SDS011;56430;48.154;16.458;2023-09-30T03:34:27;7.63;;;3.20;;
69310;SDS011;56430;48.154;16.458;2023-09-30T03:36:55;7.30;;;3.53;;
69310;SDS011;56430;48.154;16.458;2023-09-30T03:39:25;6.53;;;3.40;;
69310;SDS011;56430;48.154;16.458;2023-09-30T03:41:54;12.93;;;3.70;;
69310;SDS011;56430;48.154;16.458;2023-09-30T03:44:21;8.23;;;3.92;;
69310;SDS011;56430;48.154;16.458;2023-09-30T03:46:48;10.05;;;3.65;;
69310;SDS011;56430;48.154;16.458;2023-09-30T03:49:15;6.93;;;3.55;;
69310;SDS011;56430;48.154;16.458;2023-09-30T03:51:42;6.67;;;3.20;;
69310;SDS011;56430;48.154;16.458;2023-09-30T03:54:09;6.22;;;3.03;;
69310;SDS011;56430;48.154;16.458;2023-09-30T03:56:37;8.20;;;3.85;;
69310;SDS011;56430;48.154;16.458;2023-09-30T03:59:05;9.55;;;3.10;;
69310;SDS011;56430;48.154;16.458;2023-09-30T04:01:34;6.50;;;2.97;;
69310;SDS011;56430;48.154;16.458;2023-09-30T04:04:05;6.03;;;3.03;;
69310;SDS011;56430;48.154;16.458;2023-09-30T04:06:32;12.02;;;2.92;;
69310;SDS011;56430;48.154;16.458;2023-09-30T04:08:59;5.93;;;2.60;;
69310;SDS011;56430;48.154;16.458;2023-09-30T04:11:27;22.58;;;3.80;;
69310;SDS011;56430;48.154;16.458;2023-09-30T04:13:55;8.65;;;3.00;;
69310;SDS011;56430;48.154;16.458;2023-09-30T04:16:22;16.40;;;2.70;;
69310;SDS011;56430;48.154;16.458;2023-09-30T04:18:54;6.03;;;2.50;;
69310;SDS011;56430;48.154;16.458;2023-09-30T04:21:21;12.70;;;3.28;;
69310;SDS011;56430;48.154;16.458;2023-09-30T04:23:48;7.35;;;3.20;;
69310;SDS011;56430;48.154;16.458;2023-09-30T04:26:15;6.60;;;2.90;;
69310;SDS011;56430;48.154;16.458;2023-09-30T04:28:41;9.60;;;3.43;;
69310;SDS011;56430;48.154;16.458;2023-09-30T04:31:10;7.68;;;3.08;;
69310;SDS011;56430;48.154;16.458;2023-09-30T04:33:40;7.47;;;3.47;;
69310;SDS011;56430;48.154;16.458;2023-09-30T04:36:06;6.60;;;2.83;;
69310;SDS011;56430;48.154;16.458;2023-09-30T04:38:34;8.57;;;3.33;;
69310;SDS011;56430;48.154;16.458;2023-09-30T04:41:02;10.97;;;3.50;;
69310;SDS011;56430;48.154;16.458;2023-09-30T04:43:32;9.95;;;3.40;;
69310;SDS011;56430;48.154;16.458;2023-09-30T04:45:59;12.32;;;3.35;;
69310;SDS011;56430;48.154;16.458;2023-09-30T04:48:28;10.88;;;3.85;;
69310;SDS011;56430;48.154;16.458;2023-09-30T04:50:55;10.73;;;3.65;;
69310;SDS011;56430;48.154;16.458;2023-09-30T04:53:21;12.00;;;3.87;;
69310;SDS011;56430;48.154;16.458;2023-09-30T04:55:49;9.63;;;3.17;;
69310;SDS011;56430;48.154;16.458;2023-09-30T04:58:19;12.07;;;4.15;;
69310;SDS011;56430;48.154;16.458;2023-09-30T05:00:46;10.52;;;3.55;;
69310;SDS011;56430;48.154;16.458;2023-09-30T05:03:13;10.77;;;3.63;;
69310;SDS011;56430;48.154;16.458;2023-09-30T05:05:41;9.70;;;3.70;;
69310;SDS011;56430;48.154;16.458;2023-09-30T05:08:08;12.55;;;4.28;;
69310;SDS011;56430;48.154;16.458;2023-09-30T05:10:36;10.13;;;3.85;;
69310;SDS011;56430;48.154;16.458;2023-09-30T05:13:04;12.15;;;4.20;;
69310;SDS011;56430;48.154;16.458;2023-09-30T05:15:31;11.32;;;3.95;;
69310;SDS011;56430;48.154;16.458;2023-09-30T05:18:00;10.97;;;3.40;;
69310;SDS011;56430;48.154;16.458;2023-09-30T05:20:27;15.93;;;3.65;;
69310;SDS011;56430;48.154;16.458;2023-09-30T05:22:55;13.23;;;4.10;;
69310;SDS011;56430;48.154;16.458;2023-09-30T05:25:22;12.55;;;4.32;;
69310;SDS011;56430;48.154;16.458;2023-09-30T05:27:51;12.82;;;3.70;;
69310;SDS011;56430;48.154;16.458;2023-09-30T05:30:19;11.73;;;4.07;;
69310;SDS011;56430;48.154;16.458;2023-09-30T05:32:46;14.68;;;3.97;;
69310;SDS011;56430;48.154;16.458;2023-09-30T05:35:13;11.70;;;4.10;;
69310;SDS011;56430;48.154;16.458;2023-09-30T05:37:42;11.48;;;4.15;;
69310;SDS011;56430;48.154;16.458;2023-09-30T05:40:12;13.77;;;4.35;;
69310;SDS011;56430;48.154;16.458;2023-09-30T05:42:47;13.90;;;4.27;;
69310;SDS011;56430;48.154;16.458;2023-09-30T05:45:15;14.52;;;3.72;;
69310;SDS011;56430;48.154;16.458;2023-09-30T05:47:42;10.02;;;3.80;;
69310;SDS011;56430;48.154;16.458;2023-09-30T05:50:09;13.00;;;3.78;;
69310;SDS011;56430;48.154;16.458;2023-09-30T05:52:40;12.88;;;4.00;;
69310;SDS011;56430;48.154;16.458;2023-09-30T05:55:07;12.30;;;4.13;;
69310;SDS011;56430;48.154;16.458;2023-09-30T05:57:35;14.65;;;4.18;;
69310;SDS011;56430;48.154;16.458;2023-09-30T06:00:02;12.98;;;3.85;;
69310;SDS011;56430;48.154;16.458;2023-09-30T06:02:37;11.85;;;3.75;;
69310;SDS011;56430;48.154;16.458;2023-09-30T06:05:04;12.88;;;4.03;;
69310;SDS011;56430;48.154;16.458;2023-09-30T06:07:31;11.67;;;4.43;;
69310;SDS011;56430;48.154;16.458;2023-09-30T06:09:59;15.30;;;4.03;;
69310;SDS011;56430;48.154;16.458;2023-09-30T06:12:28;14.60;;;4.32;;
69310;SDS011;56430;48.154;16.458;2023-09-30T06:14:57;16.20;;;4.50;;
69310;SDS011;56430;48.154;16.458;2023-09-30T06:17:24;15.40;;;4.63;;
69310;SDS011;56430;48.154;16.458;2023-09-30T06:19:51;13.27;;;3.90;;
69310;SDS011;56430;48.154;16.458;2023-09-30T06:22:18;15.07;;;4.55;;
69310;SDS011;56430;48.154;16.458;2023-09-30T06:24:45;13.18;;;4.63;;
69310;SDS011;56430;48.154;16.458;2023-09-30T06:27:13;14.98;;;4.60;;
69310;SDS011;56430;48.154;16.458;2023-09-30T06:29:40;13.80;;;3.95;;
69310;SDS011;56430;48.154;16.458;2023-09-30T06:32:09;16.13;;;4.73;;
69310;SDS011;56430;48.154;16.458;2023-09-30T06:34:36;13.35;;;4.53;;
69310;SDS011;56430;48.154;16.458;2023-09-30T06:37:03;11.65;;;3.88;;
69310;SDS011;56430;48.154;16.458;2023-09-30T06:39:30;12.52;;;4.00;;
69310;SDS011;56430;48.154;16.458;2023-09-30T06:41:56;12.75;;;4.55;;
69310;SDS011;56430;48.154;16.458;2023-09-30T06:44:23;15.57;;;4.97;;
69310;SDS011;56430;48.154;16.458;2023-09-30T06:46:51;14.13;;;4.40;;
69310;SDS011;56430;48.154;16.458;2023-09-30T06:49:21;11.55;;;3.95;;
69310;SDS011;56430;48.154;16.458;2023-09-30T06:51:48;16.67;;;5.03;;
69310;SDS011;56430;48.154;16.458;2023-09-30T06:54:15;16.15;;;5.57;;
69310;SDS011;56430;48.154;16.458;2023-09-30T06:56:42;19.80;;;5.30;;
69310;SDS011;56430;48.154;16.458;2023-09-30T06:59:09;13.85;;;4.47;;
69310;SDS011;56430;48.154;16.458;2023-09-30T07:01:36;14.38;;;4.35;;
69310;SDS011;56430;48.154;16.458;2023-09-30T07:04:03;12.98;;;4.43;;
69310;SDS011;56430;48.154;16.458;2023-09-30T07:06:31;15.30;;;4.20;;
69310;SDS011;56430;48.154;16.458;2023-09-30T07:08:58;11.93;;;4.40;;
69310;SDS011;56430;48.154;16.458;2023-09-30T07:11:28;15.75;;;5.43;;
69310;SDS011;56430;48.154;16.458;2023-09-30T07:13:55;14.40;;;4.47;;
69310;SDS011;56430;48.154;16.458;2023-09-30T07:16:22;15.40;;;5.45;;
69310;SDS011;56430;48.154;16.458;2023-09-30T07:18:49;13.30;;;4.70;;
69310;SDS011;56430;48.154;16.458;2023-09-30T07:21:16;18.00;;;4.63;;
69310;SDS011;56430;48.154;16.458;2023-09-30T07:23:45;18.10;;;5.07;;
69310;SDS011;56430;48.154;16.458;2023-09-30T07:26:13;16.13;;;5.40;;
69310;SDS011;56430;48.154;16.458;2023-09-30T07:28:43;12.35;;;4.65;;
69310;SDS011;56430;48.154;16.458;2023-09-30T07:31:10;18.77;;;5.38;;
69310;SDS011;56430;48.154;16.458;2023-09-30T07:33:37;11.87;;;4.20;;
69310;SDS011;56430;48.154;16.458;2023-09-30T07:36:04;11.55;;;4.13;;
69310;SDS011;56430;48.154;16.458;2023-09-30T07:41:27;14.73;;;4.28;;
69310;SDS011;56430;48.154;16.458;2023-09-30T07:43:54;13.63;;;5.43;;
69310;SDS011;56430;48.154;16.458;2023-09-30T07:46:21;15.00;;;4.97;;
69310;SDS011;56430;48.154;16.458;2023-09-30T07:48:48;13.60;;;4.90;;
69310;SDS011;56430;48.154;16.458;2023-09-30T07:51:15;11.50;;;4.30;;
69310;SDS011;56430;48.154;16.458;2023-09-30T07:53:42;14.02;;;4.88;;
69310;SDS011;56430;48.154;16.458;2023-09-30T07:56:09;13.05;;;4.72;;
69310;SDS011;56430;48.154;16.458;2023-09-30T07:58:37;14.85;;;5.28;;
69310;SDS011;56430;48.154;16.458;2023-09-30T08:01:04;11.55;;;4.68;;
69310;SDS011;56430;48.154;16.458;2023-09-30T08:03:30;13.48;;;5.15;;
69310;SDS011;56430;48.154;16.458;2023-09-30T08:05:57;14.93;;;6.05;;
69310;SDS011;56430;48.154;16.458;2023-09-30T08:08:24;13.05;;;5.72;;
69310;SDS011;56430;48.154;16.458;2023-09-30T08:10:51;13.60;;;5.40;;
69310;SDS011;56430;48.154;16.458;2023-09-30T08:13:21;17.03;;;6.37;;
69310;SDS011;56430;48.154;16.458;2023-09-30T08:15:52;13.43;;;5.82;;
69310;SDS011;56430;48.154;16.458;2023-09-30T08:18:19;12.30;;;5.55;;
69310;SDS011;56430;48.154;16.458;2023-09-30T08:20:45;13.68;;;5.85;;
69310;SDS011;56430;48.154;16.458;2023-09-30T08:23:12;16.02;;;6.28;;
69310;SDS011;56430;48.154;16.458;2023-09-30T08:25:39;17.98;;;5.75;;
69310;SDS011;56430;48.154;16.458;2023-09-30T08:28:06;15.43;;;6.07;;
69310;SDS011;56430;48.154;16.458;2023-09-30T08:30:35;16.33;;;6.82;;
69310;SDS011;56430;48.154;16.458;2023-09-30T08:33:03;14.45;;;6.03;;
69310;SDS011;56430;48.154;16.458;2023-09-30T08:35:31;13.20;;;5.50;;
69310;SDS011;56430;48.154;16.458;2023-09-30T08:38:01;19.17;;;5.60;;
69310;SDS011;56430;48.154;16.458;2023-09-30T08:40:28;14.00;;;5.72;;
69310;SDS011;56430;48.154;16.458;2023-09-30T08:42:55;14.82;;;5.78;;
69310;SDS011;56430;48.154;16.458;2023-09-30T08:45:22;15.27;;;5.70;;
69310;SDS011;56430;48.154;16.458;2023-09-30T08:47:48;13.35;;;5.30;;
69310;SDS011;56430;48.154;16.458;2023-09-30T08:50:17;18.90;;;4.88;;
69310;SDS011;56430;48.154;16.458;2023-09-30T08:52:44;13.25;;;5.25;;
69310;SDS011;56430;48.154;16.458;2023-09-30T08:55:11;12.85;;;4.82;;
69310;SDS011;56430;48.154;16.458;2023-09-30T08:57:40;13.30;;;5.25;;
69310;SDS011;56430;48.154;16.458;2023-09-30T09:00:07;13.17;;;5.03;;
69310;SDS011;56430;48.154;16.458;2023-09-30T09:02:36;12.97;;;5.37;;
69310;SDS011;56430;48.154;16.458;2023-09-30T09:05:04;12.50;;;4.70;;
69310;SDS011;56430;48.154;16.458;2023-09-30T09:07:32;12.60;;;5.03;;
69310;SDS011;56430;48.154;16.458;2023-09-30T09:10:03;13.73;;;5.07;;
69310;SDS011;56430;48.154;16.458;2023-09-30T09:12:32;12.57;;;4.40;;
69310;SDS011;56430;48.154;16.458;2023-09-30T09:14:59;12.27;;;4.57;;
69310;SDS011;56430;48.154;16.458;2023-09-30T09:17:30;13.43;;;4.93;;
69310;SDS011;56430;48.154;16.458;2023-09-30T09:20:06;11.93;;;4.68;;
69310;SDS011;56430;48.154;16.458;2023-09-30T09:22:39;13.38;;;4.30;;
69310;SDS011;56430;48.154;16.458;2023-09-30T09:25:06;12.83;;;4.33;;
69310;SDS011;56430;48.154;16.458;2023-09-30T09:27:33;12.00;;;4.73;;
69310;SDS011;56430;48.154;16.458;2023-09-30T09:30:13;11.18;;;4.15;;
69310;SDS011;56430;48.154;16.458;2023-09-30T09:32:51;13.32;;;4.30;;
69310;SDS011;56430;48.154;16.458;2023-09-30T09:35:19;11.30;;;3.85;;
69310;SDS011;56430;48.154;16.458;2023-09-30T09:37:55;12.00;;;3.75;;
69310;SDS011;56430;48.154;16.458;2023-09-30T09:40:22;12.73;;;4.53;;
69310;SDS011;56430;48.154;16.458;2023-09-30T09:42:49;10.13;;;3.90;;
69310;SDS011;56430;48.154;16.458;2023-09-30T09:45:19;11.60;;;4.22;;
69310;SDS011;56430;48.154;16.458;2023-09-30T09:47:47;11.70;;;3.60;;
69310;SDS011;56430;48.154;16.458;2023-09-30T09:50:14;11.13;;;4.20;;
69310;SDS011;56430;48.154;16.458;2023-09-30T09:52:41;11.43;;;3.67;;
69310;SDS011;56430;48.154;16.458;2023-09-30T09:55:11;10.73;;;3.75;;
69310;SDS011;56430;48.154;16.458;2023-09-30T09:57:39;10.50;;;3.72;;
69310;SDS011;56430;48.154;16.458;2023-09-30T10:00:07;11.68;;;3.55;;
69310;SDS011;56430;48.154;16.458;2023-09-30T10:02:39;14.07;;;4.05;;
69310;SDS011;56430;48.154;16.458;2023-09-30T10:05:06;12.93;;;4.28;;
69310;SDS011;56430;48.154;16.458;2023-09-30T10:07:35;13.85;;;4.30;;
69310;SDS011;56430;48.154;16.458;2023-09-30T10:10:04;15.02;;;4.50;;
69310;SDS011;56430;48.154;16.458;2023-09-30T10:12:37;16.42;;;4.25;;
69310;SDS011;56430;48.154;16.458;2023-09-30T10:17:56;14.73;;;4.57;;
69310;SDS011;56430;48.154;16.458;2023-09-30T10:20:26;13.68;;;3.80;;
69310;SDS011;56430;48.154;16.458;2023-09-30T10:25:35;12.13;;;4.28;;
69310;SDS011;56430;48.154;16.458;2023-09-30T10:33:27;12.45;;;4.22;;
69310;SDS011;56430;48.154;16.458;2023-09-30T10:35:53;22.80;;;4.65;;
69310;SDS011;56430;48.154;16.458;2023-09-30T10:38:39;15.38;;;4.18;;
69310;SDS011;56430;48.154;16.458;2023-09-30T10:41:07;12.67;;;4.10;;
69310;SDS011;56430;48.154;16.458;2023-09-30T10:43:34;15.50;;;3.90;;
69310;SDS011;56430;48.154;16.458;2023-09-30T10:46:02;13.98;;;4.25;;
69310;SDS011;56430;48.154;16.458;2023-09-30T10:48:38;12.48;;;3.92;;
69310;SDS011;56430;48.154;16.458;2023-09-30T10:51:10;16.55;;;4.03;;
69310;SDS011;56430;48.154;16.458;2023-09-30T10:53:41;18.17;;;4.85;;
69310;SDS011;56430;48.154;16.458;2023-09-30T10:56:08;13.05;;;4.05;;
69310;SDS011;56430;48.154;16.458;2023-09-30T10:58:41;11.95;;;4.38;;
69310;SDS011;56430;48.154;16.458;2023-09-30T11:01:08;12.45;;;4.80;;
69310;SDS011;56430;48.154;16.458;2023-09-30T11:03:35;14.75;;;4.10;;
69310;SDS011;56430;48.154;16.458;2023-09-30T11:06:03;11.53;;;4.00;;
69310;SDS011;56430;48.154;16.458;2023-09-30T11:08:30;13.03;;;4.07;;
69310;SDS011;56430;48.154;16.458;2023-09-30T11:10:58;10.70;;;3.28;;
69310;SDS011;56430;48.154;16.458;2023-09-30T11:13:31;12.13;;;3.55;;
69310;SDS011;56430;48.154;16.458;2023-09-30T11:16:01;16.83;;;4.28;;
69310;SDS011;56430;48.154;16.458;2023-09-30T11:18:28;12.40;;;4.35;;
69310;SDS011;56430;48.154;16.458;2023-09-30T11:21:04;11.55;;;4.22;;
69310;SDS011;56430;48.154;16.458;2023-09-30T11:23:31;11.30;;;3.67;;
69310;SDS011;56430;48.154;16.458;2023-09-30T11:25:58;12.27;;;4.18;;
69310;SDS011;56430;48.154;16.458;2023-09-30T11:28:25;13.73;;;4.45;;
69310;SDS011;56430;48.154;16.458;2023-09-30T11:30:53;10.73;;;3.97;;
69310;SDS011;56430;48.154;16.458;2023-09-30T11:33:20;11.83;;;4.33;;
69310;SDS011;56430;48.154;16.458;2023-09-30T11:35:55;10.63;;;3.88;;
69310;SDS011;56430;48.154;16.458;2023-09-30T11:38:24;12.65;;;4.03;;
69310;SDS011;56430;48.154;16.458;2023-09-30T11:41:00;12.85;;;3.80;;
69310;SDS011;56430;48.154;16.458;2023-09-30T11:43:29;13.35;;;5.05;;
69310;SDS011;56430;48.154;16.458;2023-09-30T11:46:06;10.48;;;3.75;;
69310;SDS011;56430;48.154;16.458;2023-09-30T11:48:34;13.45;;;4.20;;
69310;SDS011;56430;48.154;16.458;2023-09-30T11:51:01;8.90;;;3.13;;
69310;SDS011;56430;48.154;16.458;2023-09-30T11:53:30;10.82;;;3.90;;
69310;SDS011;56430;48.154;16.458;2023-09-30T11:55:57;11.27;;;3.77;;
69310;SDS011;56430;48.154;16.458;2023-09-30T11:58:25;10.73;;;3.93;;
69310;SDS011;56430;48.154;16.458;2023-09-30T12:00:55;11.85;;;3.45;;
69310;SDS011;56430;48.154;16.458;2023-09-30T12:03:25;13.38;;;4.55;;
69310;SDS011;56430;48.154;16.458;2023-09-30T12:05:52;13.05;;;3.25;;
69310;SDS011;56430;48.154;16.458;2023-09-30T12:08:20;11.88;;;3.60;;
69310;SDS011;56430;48.154;16.458;2023-09-30T12:10:49;10.95;;;3.60;;
69310;SDS011;56430;48.154;16.458;2023-09-30T12:13:16;11.68;;;3.45;;
69310;SDS011;56430;48.154;16.458;2023-09-30T12:15:43;11.70;;;3.92;;
69310;SDS011;56430;48.154;16.458;2023-09-30T12:18:10;12.43;;;3.72;;
69310;SDS011;56430;48.154;16.458;2023-09-30T12:20:39;11.00;;;3.50;;
69310;SDS011;56430;48.154;16.458;2023-09-30T12:23:06;12.00;;;3.47;;
69310;SDS011;56430;48.154;16.458;2023-09-30T12:25:33;11.25;;;3.80;;
69310;SDS011;56430;48.154;16.458;2023-09-30T12:28:02;11.60;;;3.45;;
69310;SDS011;56430;48.154;16.458;2023-09-30T12:30:30;11.40;;;3.53;;
69310;SDS011;56430;48.154;16.458;2023-09-30T12:32:57;9.38;;;2.90;;
69310;SDS011;56430;48.154;16.458;2023-09-30T12:35:24;12.18;;;3.50;;
69310;SDS011;56430;48.154;16.458;2023-09-30T12:37:51;10.23;;;3.22;;
69310;SDS011;56430;48.154;16.458;2023-09-30T12:40:18;13.18;;;3.58;;
69310;SDS011;56430;48.154;16.458;2023-09-30T12:42:45;11.33;;;3.00;;
69310;SDS011;56430;48.154;16.458;2023-09-30T12:45:14;12.63;;;3.20;;
69310;SDS011;56430;48.154;16.458;2023-09-30T12:47:43;10.52;;;2.47;;
69310;SDS011;56430;48.154;16.458;2023-09-30T12:50:10;10.60;;;2.95;;
69310;SDS011;56430;48.154;16.458;2023-09-30T12:52:36;13.95;;;3.35;;
69310;SDS011;56430;48.154;16.458;2023-09-30T12:55:04;9.85;;;2.95;;
69310;SDS011;56430;48.154;16.458;2023-09-30T12:57:31;8.88;;;2.78;;
69310;SDS011;56430;48.154;16.458;2023-09-30T12:59:58;8.32;;;3.00;;
69310;SDS011;56430;48.154;16.458;2023-09-30T13:02:26;10.75;;;3.17;;
69310;SDS011;56430;48.154;16.458;2023-09-30T13:04:53;10.45;;;3.05;;
69310;SDS011;56430;48.154;16.458;2023-09-30T13:07:20;10.63;;;3.13;;
69310;SDS011;56430;48.154;16.458;2023-09-30T13:09:47;11.27;;;3.10;;
69310;SDS011;56430;48.154;16.458;2023-09-30T13:12:13;9.52;;;2.70;;
69310;SDS011;56430;48.154;16.458;2023-09-30T13:14:41;17.00;;;2.83;;
69310;SDS011;56430;48.154;16.458;2023-09-30T13:17:08;10.20;;;3.28;;
69310;SDS011;56430;48.154;16.458;2023-09-30T13:19:39;12.52;;;2.97;;
69310;SDS011;56430;48.154;16.458;2023-09-30T13:22:09;7.78;;;2.63;;
69310;SDS011;56430;48.154;16.458;2023-09-30T13:24:38;10.48;;;2.78;;
69310;SDS011;56430;48.154;16.458;2023-09-30T13:27:10;10.90;;;3.13;;
69310;SDS011;56430;48.154;16.458;2023-09-30T13:29:37;9.80;;;3.33;;
69310;SDS011;56430;48.154;16.458;2023-09-30T13:32:06;10.67;;;2.47;;
69310;SDS011;56430;48.154;16.458;2023-09-30T13:34:33;8.27;;;2.60;;
69310;SDS011;56430;48.154;16.458;2023-09-30T13:37:01;10.10;;;2.72;;
69310;SDS011;56430;48.154;16.458;2023-09-30T13:39:27;10.25;;;2.63;;
69310;SDS011;56430;48.154;16.458;2023-09-30T13:41:55;11.25;;;2.95;;
69310;SDS011;56430;48.154;16.458;2023-09-30T13:44:21;8.10;;;2.40;;
69310;SDS011;56430;48.154;16.458;2023-09-30T13:46:48;10.32;;;2.72;;
69310;SDS011;56430;48.154;16.458;2023-09-30T13:49:15;7.25;;;2.55;;
69310;SDS011;56430;48.154;16.458;2023-09-30T13:51:43;10.20;;;2.67;;
69310;SDS011;56430;48.154;16.458;2023-09-30T13:54:11;9.13;;;2.80;;
69310;SDS011;56430;48.154;16.458;2023-09-30T13:56:39;10.37;;;3.47;;
69310;SDS011;56430;48.154;16.458;2023-09-30T13:59:06;10.57;;;3.42;;
69310;SDS011;56430;48.154;16.458;2023-09-30T14:01:33;10.80;;;3.20;;
69310;SDS011;56430;48.154;16.458;2023-09-30T14:04:00;11.98;;;3.88;;
69310;SDS011;56430;48.154;16.458;2023-09-30T14:06:27;12.57;;;3.65;;
69310;SDS011;56430;48.154;16.458;2023-09-30T14:08:55;14.55;;;3.83;;
69310;SDS011;56430;48.154;16.458;2023-09-30T14:11:23;9.83;;;2.93;;
69310;SDS011;56430;48.154;16.458;2023-09-30T14:13:50;13.07;;;3.43;;
69310;SDS011;56430;48.154;16.458;2023-09-30T14:16:17;10.90;;;3.42;;
69310;SDS011;56430;48.154;16.458;2023-09-30T14:18:44;11.52;;;3.35;;
69310;SDS011;56430;48.154;16.458;2023-09-30T14:21:11;13.20;;;3.65;;
69310;SDS011;56430;48.154;16.458;2023-09-30T14:23:38;13.57;;;4.30;;
69310;SDS011;56430;48.154;16.458;2023-09-30T14:26:05;12.85;;;3.58;;
69310;SDS011;56430;48.154;16.458;2023-09-30T14:28:37;13.10;;;3.83;;
69310;SDS011;56430;48.154;16.458;2023-09-30T14:31:04;10.53;;;3.13;;
69310;SDS011;56430;48.154;16.458;2023-09-30T14:33:31;12.82;;;3.58;;
69310;SDS011;56430;48.154;16.458;2023-09-30T14:35:58;13.82;;;3.70;;
69310;SDS011;56430;48.154;16.458;2023-09-30T14:38:24;13.02;;;4.10;;
69310;SDS011;56430;48.154;16.458;2023-09-30T14:40:52;10.30;;;3.90;;
69310;SDS011;56430;48.154;16.458;2023-09-30T14:43:19;12.93;;;3.67;;
69310;SDS011;56430;48.154;16.458;2023-09-30T14:45:47;13.63;;;3.80;;
69310;SDS011;56430;48.154;16.458;2023-09-30T14:48:14;12.05;;;3.38;;